sensor_id;sensor_type;location;lat;lon;timestamp;pressure;altitude;pressure_sealevel;temperature;humidity
71195;BME280;58908;51.426;7.714;2023-02-12T00:02:14;101942.28;;;6.23;100.00
71195;BME280;58908;51.426;7.714;2023-02-12T00:04:41;101938.75;;;6.22;100.00
71195;BME280;58908;51.426;7.714;2023-02-12T00:07:07;101939.66;;;6.21;100.00
71195;BME280;58908;51.426;7.714;2023-02-12T00:09:33;101937.91;;;6.20;100.00
71195;BME280;58908;51.426;7.714;2023-02-12T00:12:00;101930.03;;;6.19;100.00
71195;BME280;58908;51.426;7.714;2023-02-12T00:14:26;101940.53;;;6.19;100.00
71195;BME280;58908;51.426;7.714;2023-02-12T00:16:52;101930.91;;;6.16;100.00
71195;BME280;58908;51.426;7.714;2023-02-12T00:19:20;101934.44;;;6.17;100.00
71195;BME280;58908;51.426;7.714;2023-02-12T00:21:46;101930.03;;;6.19;100.00
71195;BME280;58908;51.426;7.714;2023-02-12T00:24:13;101926.53;;;6.20;100.00
71195;BME280;58908;51.426;7.714;2023-02-12T00:26:39;101925.69;;;6.19;100.00
71195;BME280;58908;51.426;7.714;2023-02-12T00:29:05;101930.94;;;6.18;100.00
71195;BME280;58908;51.426;7.714;2023-02-12T00:31:32;101924.81;;;6.14;100.00
71195;BME280;58908;51.426;7.714;2023-02-12T00:33:58;101926.59;;;6.14;100.00
71195;BME280;58908;51.426;7.714;2023-02-12T00:36:26;101932.69;;;6.11;100.00
71195;BME280;58908;51.426;7.714;2023-02-12T00:38:53;101930.06;;;6.10;100.00
71195;BME280;58908;51.426;7.714;2023-02-12T00:41:20;101936.22;;;6.10;100.00
71195;BME280;58908;51.426;7.714;2023-02-12T00:43:46;101929.22;;;6.09;100.00
71195;BME280;58908;51.426;7.714;2023-02-12T00:46:13;101940.56;;;6.11;100.00
71195;BME280;58908;51.426;7.714;2023-02-12T00:48:40;101934.47;;;6.09;100.00
71195;BME280;58908;51.426;7.714;2023-02-12T00:51:06;101940.59;;;6.08;100.00
71195;BME280;58908;51.426;7.714;2023-02-12T00:53:34;101944.94;;;6.09;100.00
71195;BME280;58908;51.426;7.714;2023-02-12T00:56:00;101935.34;;;6.07;100.00
71195;BME280;58908;51.426;7.714;2023-02-12T00:58:26;101943.19;;;6.07;100.00
71195;BME280;58908;51.426;7.714;2023-02-12T01:00:53;101943.19;;;6.07;100.00
71195;BME280;58908;51.426;7.714;2023-02-12T01:03:19;101944.97;;;6.06;100.00
71195;BME280;58908;51.426;7.714;2023-02-12T01:05:46;101943.19;;;6.05;100.00
71195;BME280;58908;51.426;7.714;2023-02-12T01:08:13;101941.47;;;6.06;100.00
71195;BME280;58908;51.426;7.714;2023-02-12T01:10:41;101936.22;;;6.06;100.00
71195;BME280;58908;51.426;7.714;2023-02-12T01:13:08;101931.88;;;6.05;100.00
71195;BME280;58908;51.426;7.714;2023-02-12T01:15:36;101939.72;;;6.06;100.00
71195;BME280;58908;51.426;7.714;2023-02-12T01:18:02;101941.47;;;6.06;100.00
71195;BME280;58908;51.426;7.714;2023-02-12T01:20:29;101934.47;;;6.05;100.00
71195;BME280;58908;51.426;7.714;2023-02-12T01:22:55;101931.88;;;6.05;100.00
71195;BME280;58908;51.426;7.714;2023-02-12T01:25:21;101931.88;;;6.05;100.00
71195;BME280;58908;51.426;7.714;2023-02-12T01:27:50;101929.25;;;6.05;100.00
71195;BME280;58908;51.426;7.714;2023-02-12T01:30:17;101931.88;;;6.05;100.00
71195;BME280;58908;51.426;7.714;2023-02-12T01:32:46;101932.75;;;6.04;100.00
71195;BME280;58908;51.426;7.714;2023-02-12T01:35:12;101937.97;;;6.02;100.00
71195;BME280;58908;51.426;7.714;2023-02-12T01:37:38;101931.88;;;6.00;100.00
71195;BME280;58908;51.426;7.714;2023-02-12T01:40:06;101936.25;;;6.01;100.00
71195;BME280;58908;51.426;7.714;2023-02-12T01:42:33;101935.38;;;6.01;100.00
71195;BME280;58908;51.426;7.714;2023-02-12T01:47:46;101932.75;;;5.99;100.00
71195;BME280;58908;51.426;7.714;2023-02-12T01:50:12;101935.38;;;5.98;100.00
71195;BME280;58908;51.426;7.714;2023-02-12T01:52:41;101924.00;;;5.99;100.00
71195;BME280;58908;51.426;7.714;2023-02-12T01:55:08;101934.50;;;5.99;100.00
71195;BME280;58908;51.426;7.714;2023-02-12T01:57:35;101929.28;;;5.97;100.00
71195;BME280;58908;51.426;7.714;2023-02-12T02:00:06;101923.16;;;5.98;100.00
71195;BME280;58908;51.426;7.714;2023-02-12T02:02:33;101920.50;;;6.00;100.00
71195;BME280;58908;51.426;7.714;2023-02-12T02:05:01;101917.03;;;5.99;100.00
71195;BME280;58908;51.426;7.714;2023-02-12T02:07:28;101915.28;;;6.01;100.00
71195;BME280;58908;51.426;7.714;2023-02-12T02:09:54;101920.53;;;6.01;100.00
71195;BME280;58908;51.426;7.714;2023-02-12T02:12:21;101919.66;;;6.01;100.00
71195;BME280;58908;51.426;7.714;2023-02-12T02:15:10;101918.78;;;6.02;100.00
71195;BME280;58908;51.426;7.714;2023-02-12T02:17:40;101917.91;;;6.00;100.00
71195;BME280;58908;51.426;7.714;2023-02-12T02:20:20;101917.91;;;6.00;100.00
71195;BME280;58908;51.426;7.714;2023-02-12T02:22:56;101920.53;;;6.01;100.00
71195;BME280;58908;51.426;7.714;2023-02-12T02:25:42;101926.63;;;6.00;100.00
71195;BME280;58908;51.426;7.714;2023-02-12T02:28:19;101915.31;;;5.98;100.00
71195;BME280;58908;51.426;7.714;2023-02-12T02:30:55;101916.19;;;5.96;100.00
71195;BME280;58908;51.426;7.714;2023-02-12T02:33:26;101913.59;;;5.94;100.00
71195;BME280;58908;51.426;7.714;2023-02-12T02:36:00;101906.59;;;5.95;100.00
71195;BME280;58908;51.426;7.714;2023-02-12T02:38:31;101907.47;;;5.95;100.00
71195;BME280;58908;51.426;7.714;2023-02-12T02:41:02;101903.13;;;5.94;100.00
71195;BME280;58908;51.426;7.714;2023-02-12T02:43:30;101896.09;;;5.93;100.00
71195;BME280;58908;51.426;7.714;2023-02-12T02:46:00;101899.59;;;5.92;100.00
71195;BME280;58908;51.426;7.714;2023-02-12T02:48:31;101901.38;;;5.92;100.00
71195;BME280;58908;51.426;7.714;2023-02-12T02:51:00;101904.00;;;5.92;100.00
71195;BME280;58908;51.426;7.714;2023-02-12T02:53:30;101897.00;;;5.91;100.00
71195;BME280;58908;51.426;7.714;2023-02-12T02:55:58;101901.38;;;5.92;100.00
71195;BME280;58908;51.426;7.714;2023-02-12T02:58:25;101896.97;;;5.92;100.00
71195;BME280;58908;51.426;7.714;2023-02-12T03:00:54;101892.63;;;5.93;100.00
71195;BME280;58908;51.426;7.714;2023-02-12T03:03:24;101892.63;;;5.93;100.00
71195;BME280;58908;51.426;7.714;2023-02-12T03:05:53;101904.84;;;5.92;100.00
71195;BME280;58908;51.426;7.714;2023-02-12T03:08:21;101903.09;;;5.91;100.00
71195;BME280;58908;51.426;7.714;2023-02-12T03:10:50;101900.50;;;5.90;100.00
71195;BME280;58908;51.426;7.714;2023-02-12T03:13:19;101902.25;;;5.89;100.00
71195;BME280;58908;51.426;7.714;2023-02-12T03:15:46;101895.25;;;5.88;100.00
71195;BME280;58908;51.426;7.714;2023-02-12T03:18:16;101897.88;;;5.88;100.00
71195;BME280;58908;51.426;7.714;2023-02-12T03:20:46;101895.28;;;5.90;100.00
71195;BME280;58908;51.426;7.714;2023-02-12T03:23:14;101897.88;;;5.88;100.00
71195;BME280;58908;51.426;7.714;2023-02-12T03:25:43;101898.75;;;5.87;100.00
71195;BME280;58908;51.426;7.714;2023-02-12T03:28:12;101886.56;;;5.86;100.00
71195;BME280;58908;51.426;7.714;2023-02-12T03:30:41;101893.53;;;5.89;100.00
71195;BME280;58908;51.426;7.714;2023-02-12T03:33:12;101900.50;;;5.93;100.00
71195;BME280;58908;51.426;7.714;2023-02-12T03:35:41;101893.47;;;5.93;100.00
71195;BME280;58908;51.426;7.714;2023-02-12T03:38:13;101890.88;;;5.95;100.00
71195;BME280;58908;51.426;7.714;2023-02-12T03:40:44;101897.00;;;5.95;100.00
71195;BME280;58908;51.426;7.714;2023-02-12T03:43:16;101892.63;;;5.94;100.00
71195;BME280;58908;51.426;7.714;2023-02-12T03:45:48;101900.50;;;5.94;100.00
71195;BME280;58908;51.426;7.714;2023-02-12T03:48:17;101899.59;;;5.94;100.00
71195;BME280;58908;51.426;7.714;2023-02-12T03:50:48;101910.97;;;5.93;100.00
71195;BME280;58908;51.426;7.714;2023-02-12T03:53:18;101908.34;;;5.93;100.00
71195;BME280;58908;51.426;7.714;2023-02-12T03:55:44;101905.72;;;5.91;100.00
71195;BME280;58908;51.426;7.714;2023-02-12T03:58:12;101903.97;;;5.90;100.00
71195;BME280;58908;51.426;7.714;2023-02-12T04:00:40;101908.34;;;5.91;100.00
71195;BME280;58908;51.426;7.714;2023-02-12T04:03:07;101898.75;;;5.92;100.00
71195;BME280;58908;51.426;7.714;2023-02-12T04:05:33;101915.31;;;5.92;100.00
71195;BME280;58908;51.426;7.714;2023-02-12T04:07:59;101918.84;;;5.90;100.00
71195;BME280;58908;51.426;7.714;2023-02-12T04:10:30;101916.22;;;5.90;100.00
71195;BME280;58908;51.426;7.714;2023-02-12T04:13:02;101916.19;;;5.93;100.00
71195;BME280;58908;51.426;7.714;2023-02-12T04:15:36;101923.16;;;5.92;100.00
71195;BME280;58908;51.426;7.714;2023-02-12T04:18:09;101923.19;;;5.91;100.00
71195;BME280;58908;51.426;7.714;2023-02-12T04:20:40;101924.06;;;5.91;100.00
71195;BME280;58908;51.426;7.714;2023-02-12T04:23:10;101928.44;;;5.91;100.00
71195;BME280;58908;51.426;7.714;2023-02-12T04:25:43;101923.19;;;5.91;100.00
71195;BME280;58908;51.426;7.714;2023-02-12T04:28:19;101927.56;;;5.90;100.00
71195;BME280;58908;51.426;7.714;2023-02-12T04:30:51;101931.06;;;5.91;100.00
71195;BME280;58908;51.426;7.714;2023-02-12T04:33:20;101941.53;;;5.91;100.00
71195;BME280;58908;51.426;7.714;2023-02-12T04:35:48;101943.25;;;5.90;100.00
71195;BME280;58908;51.426;7.714;2023-02-12T04:38:16;101950.28;;;5.90;100.00
71195;BME280;58908;51.426;7.714;2023-02-12T04:40:45;101957.25;;;5.89;100.00
71195;BME280;58908;51.426;7.714;2023-02-12T04:43:12;101952.00;;;5.88;100.00
71195;BME280;58908;51.426;7.714;2023-02-12T04:45:39;101950.28;;;5.90;100.00
71195;BME280;58908;51.426;7.714;2023-02-12T04:48:05;101951.13;;;5.90;100.00
71195;BME280;58908;51.426;7.714;2023-02-12T04:50:35;101958.13;;;5.90;100.00
71195;BME280;58908;51.426;7.714;2023-02-12T04:53:03;101955.50;;;5.88;100.00
71195;BME280;58908;51.426;7.714;2023-02-12T04:55:29;101955.50;;;5.87;100.00
71195;BME280;58908;51.426;7.714;2023-02-12T04:57:57;101955.50;;;5.88;100.00
71195;BME280;58908;51.426;7.714;2023-02-12T05:00:23;101955.50;;;5.88;100.00
71195;BME280;58908;51.426;7.714;2023-02-12T05:02:49;101956.38;;;5.87;100.00
71195;BME280;58908;51.426;7.714;2023-02-12T05:05:15;101951.16;;;5.87;100.00
71195;BME280;58908;51.426;7.714;2023-02-12T05:07:42;101953.75;;;5.87;100.00
71195;BME280;58908;51.426;7.714;2023-02-12T05:10:08;101952.03;;;5.86;100.00
71195;BME280;58908;51.426;7.714;2023-02-12T05:12:35;101952.88;;;5.88;100.00
71195;BME280;58908;51.426;7.714;2023-02-12T05:15:02;101956.38;;;5.92;100.00
71195;BME280;58908;51.426;7.714;2023-02-12T05:17:29;101960.75;;;5.90;100.00
71195;BME280;58908;51.426;7.714;2023-02-12T05:19:55;101955.47;;;5.91;100.00
71195;BME280;58908;51.426;7.714;2023-02-12T05:22:21;101959.84;;;5.94;100.00
71195;BME280;58908;51.426;7.714;2023-02-12T05:24:47;101963.34;;;5.93;100.00
71195;BME280;58908;51.426;7.714;2023-02-12T05:27:14;101958.97;;;5.93;100.00
71195;BME280;58908;51.426;7.714;2023-02-12T05:29:40;101955.50;;;5.93;100.00
71195;BME280;58908;51.426;7.714;2023-02-12T05:32:08;101957.22;;;5.92;100.00
71195;BME280;58908;51.426;7.714;2023-02-12T05:34:34;101956.38;;;5.92;100.00
71195;BME280;58908;51.426;7.714;2023-02-12T05:37:00;101960.72;;;5.91;100.00
71195;BME280;58908;51.426;7.714;2023-02-12T05:39:26;101960.72;;;5.91;100.00
71195;BME280;58908;51.426;7.714;2023-02-12T05:41:53;101955.50;;;5.90;100.00
71195;BME280;58908;51.426;7.714;2023-02-12T05:44:19;101959.88;;;5.91;100.00
71195;BME280;58908;51.426;7.714;2023-02-12T05:46:45;101963.38;;;5.90;100.00
71195;BME280;58908;51.426;7.714;2023-02-12T05:49:13;101959.84;;;5.88;100.00
71195;BME280;58908;51.426;7.714;2023-02-12T05:51:39;101964.22;;;5.90;100.00
71195;BME280;58908;51.426;7.714;2023-02-12T05:54:05;101962.47;;;5.89;100.00
71195;BME280;58908;51.426;7.714;2023-02-12T05:56:32;101954.63;;;5.89;100.00
71195;BME280;58908;51.426;7.714;2023-02-12T05:59:00;101955.50;;;5.88;100.00
71195;BME280;58908;51.426;7.714;2023-02-12T06:01:28;101956.38;;;5.89;100.00
71195;BME280;58908;51.426;7.714;2023-02-12T06:03:55;101947.63;;;5.87;100.00
71195;BME280;58908;51.426;7.714;2023-02-12T06:06:22;101950.28;;;5.90;100.00
71195;BME280;58908;51.426;7.714;2023-02-12T06:08:49;101959.84;;;5.92;100.00
71195;BME280;58908;51.426;7.714;2023-02-12T06:11:16;101966.84;;;5.92;100.00
71195;BME280;58908;51.426;7.714;2023-02-12T06:13:43;101958.97;;;5.90;100.00
71195;BME280;58908;51.426;7.714;2023-02-12T06:16:15;101959.00;;;5.89;100.00
71195;BME280;58908;51.426;7.714;2023-02-12T06:18:41;101967.72;;;5.88;100.00
71195;BME280;58908;51.426;7.714;2023-02-12T06:21:07;101960.75;;;5.88;100.00
71195;BME280;58908;51.426;7.714;2023-02-12T06:23:35;101972.09;;;5.89;100.00
71195;BME280;58908;51.426;7.714;2023-02-12T06:26:01;101975.59;;;5.86;100.00
71195;BME280;58908;51.426;7.714;2023-02-12T06:28:27;101970.34;;;5.85;100.00
71195;BME280;58908;51.426;7.714;2023-02-12T06:30:54;101972.09;;;5.84;100.00
71195;BME280;58908;51.426;7.714;2023-02-12T06:33:20;101970.38;;;5.83;100.00
71195;BME280;58908;51.426;7.714;2023-02-12T06:35:47;101976.44;;;5.82;100.00
71195;BME280;58908;51.426;7.714;2023-02-12T06:38:13;101977.34;;;5.81;100.00
71195;BME280;58908;51.426;7.714;2023-02-12T06:40:40;101979.94;;;5.81;100.00
71195;BME280;58908;51.426;7.714;2023-02-12T06:43:07;101978.22;;;5.80;100.00
71195;BME280;58908;51.426;7.714;2023-02-12T06:45:33;101975.63;;;5.79;100.00
71195;BME280;58908;51.426;7.714;2023-02-12T06:47:59;101973.84;;;5.79;100.00
71195;BME280;58908;51.426;7.714;2023-02-12T06:50:25;101985.22;;;5.80;100.00
71195;BME280;58908;51.426;7.714;2023-02-12T06:52:52;101986.94;;;5.79;100.00
71195;BME280;58908;51.426;7.714;2023-02-12T06:55:18;101994.81;;;5.79;100.00
71195;BME280;58908;51.426;7.714;2023-02-12T06:57:45;101993.06;;;5.80;100.00
71195;BME280;58908;51.426;7.714;2023-02-12T07:00:12;101994.81;;;5.79;100.00
71195;BME280;58908;51.426;7.714;2023-02-12T07:02:38;102000.94;;;5.80;100.00
71195;BME280;58908;51.426;7.714;2023-02-12T07:05:05;101998.31;;;5.80;100.00
71195;BME280;58908;51.426;7.714;2023-02-12T07:07:31;102005.28;;;5.79;100.00
71195;BME280;58908;51.426;7.714;2023-02-12T07:09:58;102005.28;;;5.79;100.00
71195;BME280;58908;51.426;7.714;2023-02-12T07:12:24;102007.91;;;5.79;100.00
71195;BME280;58908;51.426;7.714;2023-02-12T07:14:51;102011.41;;;5.80;100.00
71195;BME280;58908;51.426;7.714;2023-02-12T07:17:18;102008.75;;;5.81;100.00
71195;BME280;58908;51.426;7.714;2023-02-12T07:19:44;102011.38;;;5.83;100.00
71195;BME280;58908;51.426;7.714;2023-02-12T07:22:10;102012.28;;;5.83;100.00
71195;BME280;58908;51.426;7.714;2023-02-12T07:24:36;102009.63;;;5.85;100.00
71195;BME280;58908;51.426;7.714;2023-02-12T07:27:03;102013.09;;;5.87;100.00
71195;BME280;58908;51.426;7.714;2023-02-12T07:29:29;102014.84;;;5.88;100.00
71195;BME280;58908;51.426;7.714;2023-02-12T07:31:57;102023.56;;;5.91;100.00
71195;BME280;58908;51.426;7.714;2023-02-12T07:34:23;102023.59;;;5.94;100.00
71195;BME280;58908;51.426;7.714;2023-02-12T07:36:49;102028.81;;;5.97;100.00
71195;BME280;58908;51.426;7.714;2023-02-12T07:39:15;102029.69;;;5.99;100.00
71195;BME280;58908;51.426;7.714;2023-02-12T07:41:42;102034.91;;;6.02;100.00
71195;BME280;58908;51.426;7.714;2023-02-12T07:44:09;102038.38;;;6.04;100.00
71195;BME280;58908;51.426;7.714;2023-02-12T07:46:37;102037.53;;;6.08;100.00
71195;BME280;58908;51.426;7.714;2023-02-12T07:49:05;102034.00;;;6.12;100.00
71195;BME280;58908;51.426;7.714;2023-02-12T07:51:32;102037.50;;;6.16;100.00
71195;BME280;58908;51.426;7.714;2023-02-12T07:53:59;102046.22;;;6.19;100.00
71195;BME280;58908;51.426;7.714;2023-02-12T07:56:26;102044.44;;;6.24;100.00
71195;BME280;58908;51.426;7.714;2023-02-12T07:58:55;102043.56;;;6.28;100.00
71195;BME280;58908;51.426;7.714;2023-02-12T08:01:22;102043.53;;;6.34;100.00
71195;BME280;58908;51.426;7.714;2023-02-12T08:03:50;102048.78;;;6.40;100.00
71195;BME280;58908;51.426;7.714;2023-02-12T08:06:19;102049.59;;;6.44;100.00
71195;BME280;58908;51.426;7.714;2023-02-12T08:08:45;102051.31;;;6.49;100.00
71195;BME280;58908;51.426;7.714;2023-02-12T08:11:12;102054.81;;;6.56;100.00
71195;BME280;58908;51.426;7.714;2023-02-12T08:13:39;102056.56;;;6.61;100.00
71195;BME280;58908;51.426;7.714;2023-02-12T08:16:06;102055.63;;;6.68;100.00
71195;BME280;58908;51.426;7.714;2023-02-12T08:18:33;102053.84;;;6.76;100.00
71195;BME280;58908;51.426;7.714;2023-02-12T08:21:00;102058.16;;;6.85;100.00
71195;BME280;58908;51.426;7.714;2023-02-12T08:23:28;102052.88;;;6.89;100.00
71195;BME280;58908;51.426;7.714;2023-02-12T08:25:54;102058.97;;;6.94;100.00
71195;BME280;58908;51.426;7.714;2023-02-12T08:28:20;102058.91;;;7.03;100.00
71195;BME280;58908;51.426;7.714;2023-02-12T08:30:47;102055.38;;;7.11;100.00
71195;BME280;58908;51.426;7.714;2023-02-12T08:33:13;102060.56;;;7.17;100.00
71195;BME280;58908;51.426;7.714;2023-02-12T08:35:39;102057.91;;;7.28;100.00
71195;BME280;58908;51.426;7.714;2023-02-12T08:38:05;102061.31;;;7.37;100.00
71195;BME280;58908;51.426;7.714;2023-02-12T08:40:33;102072.63;;;7.42;100.00
71195;BME280;58908;51.426;7.714;2023-02-12T08:42:59;102070.00;;;7.44;100.00
71195;BME280;58908;51.426;7.714;2023-02-12T08:45:25;102066.47;;;7.51;100.00
71195;BME280;58908;51.426;7.714;2023-02-12T08:47:52;102072.53;;;7.54;100.00
71195;BME280;58908;51.426;7.714;2023-02-12T08:50:19;102070.72;;;7.62;100.00
71195;BME280;58908;51.426;7.714;2023-02-12T08:52:45;102079.47;;;7.64;100.00
71195;BME280;58908;51.426;7.714;2023-02-12T08:55:11;102073.31;;;7.68;100.00
71195;BME280;58908;51.426;7.714;2023-02-12T08:57:40;102070.69;;;7.67;100.00
71195;BME280;58908;51.426;7.714;2023-02-12T09:00:07;102075.06;;;7.69;100.00
71195;BME280;58908;51.426;7.714;2023-02-12T09:02:33;102082.00;;;7.75;100.00
71195;BME280;58908;51.426;7.714;2023-02-12T09:05:00;102089.84;;;7.79;100.00
71195;BME280;58908;51.426;7.714;2023-02-12T09:07:26;102088.94;;;7.82;100.00
71195;BME280;58908;51.426;7.714;2023-02-12T09:09:52;102081.03;;;7.85;100.00
71195;BME280;58908;51.426;7.714;2023-02-12T09:12:18;102083.69;;;7.83;100.00
71195;BME280;58908;51.426;7.714;2023-02-12T09:14:46;102089.78;;;7.87;100.00
71195;BME280;58908;51.426;7.714;2023-02-12T09:17:12;102080.94;;;7.95;100.00
71195;BME280;58908;51.426;7.714;2023-02-12T09:19:38;102087.06;;;7.96;100.00
71195;BME280;58908;51.426;7.714;2023-02-12T09:22:05;102087.75;;;8.13;100.00
71195;BME280;58908;51.426;7.714;2023-02-12T09:24:31;102087.75;;;8.13;100.00
71195;BME280;58908;51.426;7.714;2023-02-12T09:26:57;102094.91;;;7.97;100.00
71195;BME280;58908;51.426;7.714;2023-02-12T09:29:23;102095.69;;;8.08;100.00
71195;BME280;58908;51.426;7.714;2023-02-12T09:31:51;102091.22;;;8.19;100.00
71195;BME280;58908;51.426;7.714;2023-02-12T09:34:17;102092.97;;;8.16;100.00
71195;BME280;58908;51.426;7.714;2023-02-12T09:36:43;102098.94;;;8.36;100.00
71195;BME280;58908;51.426;7.714;2023-02-12T09:39:10;102100.63;;;8.41;100.00
71195;BME280;58908;51.426;7.714;2023-02-12T09:41:43;102098.00;;;8.41;100.00
71195;BME280;58908;51.426;7.714;2023-02-12T09:44:14;102097.25;;;8.32;100.00
71195;BME280;58908;51.426;7.714;2023-02-12T09:46:44;102092.88;;;8.29;100.00
71195;BME280;58908;51.426;7.714;2023-02-12T09:49:16;102103.34;;;8.32;100.00
71195;BME280;58908;51.426;7.714;2023-02-12T09:51:44;102100.91;;;8.19;100.00
71195;BME280;58908;51.426;7.714;2023-02-12T09:54:15;102098.22;;;8.16;100.00
71195;BME280;58908;51.426;7.714;2023-02-12T09:56:43;102100.00;;;8.18;100.00
71195;BME280;58908;51.426;7.714;2023-02-12T09:59:11;102098.13;;;8.31;100.00
71195;BME280;58908;51.426;7.714;2023-02-12T10:01:39;102099.63;;;8.51;100.00
71195;BME280;58908;51.426;7.714;2023-02-12T10:04:06;102095.53;;;8.28;100.00
71195;BME280;58908;51.426;7.714;2023-02-12T10:06:35;102097.09;;;8.44;100.00
71195;BME280;58908;51.426;7.714;2023-02-12T10:09:14;102103.16;;;8.49;100.00
71195;BME280;58908;51.426;7.714;2023-02-12T10:11:48;102101.47;;;8.43;100.00
71195;BME280;58908;51.426;7.714;2023-02-12T10:14:24;102099.44;;;8.66;100.00
71195;BME280;58908;51.426;7.714;2023-02-12T10:16:55;102101.22;;;8.66;100.00
71195;BME280;58908;51.426;7.714;2023-02-12T10:19:28;102106.72;;;8.43;100.00
71195;BME280;58908;51.426;7.714;2023-02-12T10:22:01;102106.50;;;8.64;100.00
71195;BME280;58908;51.426;7.714;2023-02-12T10:24:35;102099.69;;;8.50;100.00
71195;BME280;58908;51.426;7.714;2023-02-12T10:27:08;102099.03;;;8.30;100.00
71195;BME280;58908;51.426;7.714;2023-02-12T10:29:36;102100.63;;;8.43;100.00
71195;BME280;58908;51.426;7.714;2023-02-12T10:32:08;102094.50;;;8.41;100.00
71195;BME280;58908;51.426;7.714;2023-02-12T10:34:37;102100.66;;;8.40;100.00
71195;BME280;58908;51.426;7.714;2023-02-12T10:37:08;102096.50;;;8.18;100.00
71195;BME280;58908;51.426;7.714;2023-02-12T10:39:36;102107.72;;;8.35;100.00
71195;BME280;58908;51.426;7.714;2023-02-12T10:42:08;102100.63;;;8.41;100.00
71195;BME280;58908;51.426;7.714;2023-02-12T10:44:35;102103.34;;;8.34;100.00
71195;BME280;58908;51.426;7.714;2023-02-12T10:47:01;102097.81;;;8.58;100.00
71195;BME280;58908;51.426;7.714;2023-02-12T10:49:28;102094.97;;;8.76;100.00
71195;BME280;58908;51.426;7.714;2023-02-12T10:52:01;102097.56;;;8.77;100.00
71195;BME280;58908;51.426;7.714;2023-02-12T10:54:34;102089.81;;;8.68;100.00
71195;BME280;58908;51.426;7.714;2023-02-12T10:57:05;102090.75;;;8.60;100.00
71195;BME280;58908;51.426;7.714;2023-02-12T10:59:32;102090.69;;;8.66;100.00
71195;BME280;58908;51.426;7.714;2023-02-12T11:01:59;102082.81;;;8.66;100.00
71195;BME280;58908;51.426;7.714;2023-02-12T11:04:26;102084.59;;;8.64;100.00
71195;BME280;58908;51.426;7.714;2023-02-12T11:06:55;102091.63;;;8.62;100.00
71195;BME280;58908;51.426;7.714;2023-02-12T11:09:26;102083.84;;;8.53;100.00
71195;BME280;58908;51.426;7.714;2023-02-12T11:11:54;102084.69;;;8.55;100.00
71195;BME280;58908;51.426;7.714;2023-02-12T11:14:20;102086.13;;;8.81;100.00
71195;BME280;58908;51.426;7.714;2023-02-12T11:16:50;102081.81;;;8.74;100.00
71195;BME280;58908;51.426;7.714;2023-02-12T11:19:18;102072.00;;;8.85;100.00
71195;BME280;58908;51.426;7.714;2023-02-12T11:21:45;102076.59;;;8.71;100.00
71195;BME280;58908;51.426;7.714;2023-02-12T11:30:09;102062.28;;;8.92;100.00
71195;BME280;58908;51.426;7.714;2023-02-12T11:32:37;102059.75;;;8.83;100.00
71195;BME280;58908;51.426;7.714;2023-02-12T11:35:04;102065.00;;;8.86;100.00
71195;BME280;58908;51.426;7.714;2023-02-12T11:37:31;102072.19;;;8.72;100.00
71195;BME280;58908;51.426;7.714;2023-02-12T11:39:59;102067.88;;;8.68;100.00
71195;BME280;58908;51.426;7.714;2023-02-12T11:42:26;102070.59;;;8.59;100.00
71195;BME280;58908;51.426;7.714;2023-02-12T11:44:55;102067.81;;;8.74;100.00
71195;BME280;58908;51.426;7.714;2023-02-12T11:47:24;102063.28;;;8.83;100.00
71195;BME280;58908;51.426;7.714;2023-02-12T11:49:52;102069.44;;;8.82;100.00
71195;BME280;58908;51.426;7.714;2023-02-12T11:52:20;102063.50;;;8.65;100.00
71195;BME280;58908;51.426;7.714;2023-02-12T11:54:48;102060.03;;;8.65;100.00
71195;BME280;58908;51.426;7.714;2023-02-12T11:57:34;102072.41;;;8.55;100.00
71195;BME280;58908;51.426;7.714;2023-02-12T12:00:00;102061.91;;;8.54;100.00
71195;BME280;58908;51.426;7.714;2023-02-12T12:02:30;102064.66;;;8.45;100.00
71195;BME280;58908;51.426;7.714;2023-02-12T12:05:02;102060.25;;;8.47;100.00
71195;BME280;58908;51.426;7.714;2023-02-12T12:07:33;102053.38;;;8.35;100.00
71195;BME280;58908;51.426;7.714;2023-02-12T12:10:02;102054.94;;;8.51;100.00
71195;BME280;58908;51.426;7.714;2023-02-12T12:12:32;102053.28;;;8.41;100.00
71195;BME280;58908;51.426;7.714;2023-02-12T12:15:02;102045.25;;;8.53;100.00
71195;BME280;58908;51.426;7.714;2023-02-12T12:17:52;102041.72;;;8.56;100.00
71195;BME280;58908;51.426;7.714;2023-02-12T12:20:38;102028.81;;;8.36;100.00
71195;BME280;58908;51.426;7.714;2023-02-12T12:23:07;102033.09;;;8.45;100.00
71195;BME280;58908;51.426;7.714;2023-02-12T12:25:36;102027.03;;;8.40;100.00
71195;BME280;58908;51.426;7.714;2023-02-12T12:28:08;102029.63;;;8.41;100.00
71195;BME280;58908;51.426;7.714;2023-02-12T12:33:24;102024.63;;;8.20;100.00
71195;BME280;58908;51.426;7.714;2023-02-12T12:35:58;102020.25;;;8.15;100.00
71195;BME280;58908;51.426;7.714;2023-02-12T12:38:31;102019.34;;;8.22;100.00
71195;BME280;58908;51.426;7.714;2023-02-12T12:41:05;102019.38;;;8.16;100.00
71195;BME280;58908;51.426;7.714;2023-02-12T12:43:39;102021.19;;;8.12;100.00
71195;BME280;58908;51.426;7.714;2023-02-12T12:46:15;102013.28;;;8.14;100.00
71195;BME280;58908;51.426;7.714;2023-02-12T12:48:50;102016.81;;;8.11;100.00
71195;BME280;58908;51.426;7.714;2023-02-12T12:51:23;102015.97;;;8.08;100.00
71195;BME280;58908;51.426;7.714;2023-02-12T12:53:57;102008.00;;;8.14;100.00
71195;BME280;58908;51.426;7.714;2023-02-12T12:56:44;102006.28;;;8.13;100.00
71195;BME280;58908;51.426;7.714;2023-02-12T12:59:19;102004.47;;;8.19;100.00
71195;BME280;58908;51.426;7.714;2023-02-12T13:01:49;101994.84;;;8.17;100.00
71195;BME280;58908;51.426;7.714;2023-02-12T13:04:34;101992.22;;;8.20;100.00
71195;BME280;58908;51.426;7.714;2023-02-12T13:07:10;101991.34;;;8.15;100.00
71195;BME280;58908;51.426;7.714;2023-02-12T13:09:45;101991.41;;;8.12;100.00